Time;durP1;ratioP1;P1;durP2;ratioP2;P2;SDS_P1;SDS_P2;PMS_P1;PMS_P2;Temp;Humidity;BMP_temperature;BMP_pressure;BME280_temperature;BME280_humidity;BME280_pressure;Samples;Min_cycle;Max_cycle;Signal;HPM_P1;HPM_P2
2023/01/19 00:01:39;;;;;;;0.80;0.80;;;;;;;-0.67;100.00;98920.56;5111174;28;20092;-79
2023/01/19 00:04:06;;;;;;;0.90;0.90;;;;;;;-0.64;100.00;98942.41;5107774;28;20044;-79
2023/01/19 00:06:33;;;;;;;0.90;0.90;;;;;;;-0.62;100.00;98920.03;5091307;28;20499;-78
2023/01/19 00:09:04;;;;;;;0.90;0.90;;;;;;;-0.64;100.00;98932.63;5072703;28;20052;-79
2023/01/19 00:11:31;;;;;;;0.98;0.98;;;;;;;-0.64;100.00;98929.16;5082026;28;20424;-79
2023/01/19 00:13:58;;;;;;;0.88;0.88;;;;;;;-0.67;100.00;98930.34;5111019;28;20051;-79
2023/01/19 00:16:25;;;;;;;1.00;1.00;;;;;;;-0.68;100.00;98929.53;5111393;28;20043;-78
2023/01/19 00:18:52;;;;;;;1.00;1.00;;;;;;;-0.72;100.00;98938.00;5111605;28;20054;-78
2023/01/19 00:21:23;;;;;;;1.00;1.00;;;;;;;-0.75;100.00;98928.56;5111033;28;20130;-78
2023/01/19 00:23:51;;;;;;;1.00;1.00;;;;;;;-0.75;100.00;98943.66;5110929;28;20056;-79
2023/01/19 00:26:20;;;;;;;1.10;1.10;;;;;;;-0.75;100.00;98922.44;5111302;28;20509;-79
2023/01/19 00:28:49;;;;;;;0.93;0.93;;;;;;;-0.78;100.00;98920.97;5110918;28;20078;-79
2023/01/19 00:31:16;;;;;;;0.77;0.77;;;;;;;-0.75;100.00;98922.44;5110839;28;20075;-78
2023/01/19 00:33:43;;;;;;;1.00;1.00;;;;;;;-0.76;100.00;98921.63;5111048;28;20051;-78
2023/01/19 00:36:10;;;;;;;0.85;0.85;;;;;;;-0.74;100.00;98937.31;5110965;28;20088;-79
2023/01/19 00:38:39;;;;;;;1.00;1.00;;;;;;;-0.77;100.00;98941.16;5092925;28;20043;-78
2023/01/19 00:41:06;;;;;;;1.00;1.00;;;;;;;-0.74;100.00;98929.38;5110868;28;20048;-79
2023/01/19 00:43:33;;;;;;;0.88;0.88;;;;;;;-0.74;100.00;98924.91;5112029;28;20075;-79
2023/01/19 00:46:00;;;;;;;0.85;0.85;;;;;;;-0.71;100.00;98924.56;5112880;27;20049;-79
2023/01/19 00:48:28;;;;;;;0.90;0.90;;;;;;;-0.73;100.00;98915.97;5131684;27;20054;-78
2023/01/19 00:50:55;;;;;;;0.90;0.90;;;;;;;-0.73;100.00;98933.69;5131524;27;20529;-79
2023/01/19 00:53:22;;;;;;;0.80;0.80;;;;;;;-0.74;100.00;98914.28;5131615;27;20055;-77
2023/01/19 00:55:49;;;;;;;0.98;0.98;;;;;;;-0.73;100.00;98920.44;5131177;27;20096;-77
2023/01/19 00:58:16;;;;;;;1.00;1.00;;;;;;;-0.73;100.00;98925.75;5131174;27;20451;-78
2023/01/19 01:00:43;;;;;;;0.95;0.95;;;;;;;-0.75;100.00;98923.25;5131091;27;20051;-79
2023/01/19 01:03:11;;;;;;;0.90;0.90;;;;;;;-0.74;100.00;98929.38;5131329;28;20511;-78
2023/01/19 01:05:41;;;;;;;0.85;0.85;;;;;;;-0.75;100.00;98928.56;5131552;28;20074;-78
2023/01/19 01:08:08;;;;;;;0.80;0.80;;;;;;;-0.74;100.00;98910.81;5131240;28;20390;-78
2023/01/19 01:10:35;;;;;;;0.90;0.90;;;;;;;-0.76;100.00;98915.47;5129215;28;20497;-79
2023/01/19 01:13:02;;;;;;;0.90;0.90;;;;;;;-0.76;100.00;98878.38;5092430;28;20056;-77
2023/01/19 01:15:50;;;;;;;0.88;0.88;;;;;;;-0.72;100.00;98903.53;5109488;28;20055;-80
2023/01/19 01:18:17;;;;;;;0.90;0.90;;;;;;;-0.74;100.00;98898.41;5102350;28;20505;-78
2023/01/19 01:20:43;;;;;;;0.90;0.90;;;;;;;-0.76;100.00;98908.38;5091686;28;20058;-78
2023/01/19 01:23:11;;;;;;;0.90;0.90;;;;;;;-0.75;100.00;98925.09;5110370;28;20097;-78
2023/01/19 01:25:38;;;;;;;0.80;0.80;;;;;;;-0.74;100.00;98905.53;5110673;28;20150;-79
2023/01/19 01:28:07;;;;;;;1.00;1.00;;;;;;;-0.72;100.00;98911.50;5092408;28;20093;-79
2023/01/19 01:30:38;;;;;;;0.90;0.90;;;;;;;-0.72;100.00;98922.09;5110687;28;20060;-79
2023/01/19 01:33:07;;;;;;;1.00;1.00;;;;;;;-0.73;100.00;98884.16;5098871;28;20138;-78
2023/01/19 01:35:34;;;;;;;0.80;0.80;;;;;;;-0.72;100.00;98927.38;5100536;28;20147;-77
2023/01/19 01:38:01;;;;;;;0.90;0.90;;;;;;;-0.70;100.00;98912.16;5080692;28;20044;-79
2023/01/19 01:40:28;;;;;;;0.90;0.90;;;;;;;-0.70;100.00;98923.56;5101671;28;20518;-78
2023/01/19 01:42:55;;;;;;;0.90;0.90;;;;;;;-0.69;100.00;98919.91;5097126;28;20040;-79
2023/01/19 01:45:33;;;;;;;0.75;0.75;;;;;;;-0.64;100.00;98923.88;5098200;28;20052;-79
2023/01/19 01:48:13;;;;;;;0.70;0.70;;;;;;;-0.68;100.00;98918.91;5097689;28;20048;-78
2023/01/19 01:53:34;;;;;;;0.85;0.85;;;;;;;-0.68;100.00;98918.91;5081629;28;20052;-78
2023/01/19 01:56:04;;;;;;;0.98;0.98;;;;;;;-0.65;100.00;98928.34;5094521;28;20048;-78
2023/01/19 01:58:32;;;;;;;0.90;0.90;;;;;;;-0.66;100.00;98924.03;5055078;28;20043;-78
2023/01/19 02:03:44;;;;;;;0.90;0.90;;;;;;;-0.68;100.00;98926.06;5089745;28;20147;-78
2023/01/19 02:06:12;;;;;;;0.90;0.90;;;;;;;-0.67;100.00;98925.03;5089110;28;20048;-77
2023/01/19 02:14:21;;;;;;;1.00;1.00;;;;;;;-0.65;100.00;98885.94;5091836;28;20059;-78
2023/01/19 02:16:48;;;;;;;0.80;0.80;;;;;;;-0.63;100.00;98928.16;5093124;28;20417;-78
2023/01/19 02:19:29;;;;;;;0.80;0.80;;;;;;;-0.58;100.00;98908.09;5092787;28;20052;-78
2023/01/19 02:22:10;;;;;;;0.90;0.90;;;;;;;-0.56;100.00;98903.41;5092693;28;20481;-78
2023/01/19 02:24:39;;;;;;;0.90;0.90;;;;;;;-0.54;100.00;98903.25;5075337;28;20052;-77
2023/01/19 02:27:06;;;;;;;0.90;0.90;;;;;;;-0.56;100.00;98906.06;5060644;28;20127;-78
2023/01/19 02:29:33;;;;;;;1.00;1.00;;;;;;;-0.56;100.00;98898.13;5074291;28;20494;-78
2023/01/19 02:32:04;;;;;;;0.90;0.90;;;;;;;-0.55;100.00;98905.09;5091801;28;20047;-79
2023/01/19 02:34:32;;;;;;;1.00;1.00;;;;;;;-0.55;100.00;98897.13;5075047;28;20413;-78
2023/01/19 02:37:05;;;;;;;0.70;0.70;;;;;;;-0.52;100.00;98907.38;5110952;27;20051;-76
2023/01/19 02:39:38;;;;;;;0.93;0.93;;;;;;;-0.52;100.00;98919.81;5116003;27;20058;-77
2023/01/19 02:42:10;;;;;;;0.90;0.90;;;;;;;-0.47;100.00;98904.22;5115450;27;20043;-78
2023/01/19 02:44:38;;;;;;;0.90;0.90;;;;;;;-0.49;100.00;98922.94;5133845;27;20463;-78
2023/01/19 02:47:05;;;;;;;0.85;0.85;;;;;;;-0.50;100.00;98909.88;5115130;27;20043;-78
2023/01/19 02:49:32;;;;;;;0.75;0.75;;;;;;;-0.50;100.00;98900.09;5115428;27;20043;-78
2023/01/19 02:51:59;;;;;;;0.82;0.82;;;;;;;-0.51;100.00;98893.13;5133151;27;20129;-78
2023/01/19 02:54:53;;;;;;;1.00;1.00;;;;;;;-0.55;100.00;98902.44;5115307;27;20056;-76
2023/01/19 02:57:26;;;;;;;0.90;0.90;;;;;;;-0.61;100.00;98908.41;5133363;27;20455;-78
2023/01/19 03:00:12;;;;;;;0.80;0.80;;;;;;;-0.63;100.00;98915.75;5115075;27;20039;-78
2023/01/19 03:03:12;;;;;;;0.90;0.90;;;;;;;-0.64;100.00;98906.13;5097957;27;20493;-78
2023/01/19 03:05:48;;;;;;;0.90;0.90;;;;;;;-0.66;100.00;98903.69;5115108;27;20047;-79
2023/01/19 03:08:28;;;;;;;0.82;0.82;;;;;;;-0.68;100.00;98910.16;5133672;27;20054;-78
2023/01/19 03:10:56;;;;;;;0.80;0.80;;;;;;;-0.69;100.00;98914.59;5109447;28;20048;-78
2023/01/19 03:13:40;;;;;;;0.80;0.80;;;;;;;-0.69;100.00;98913.78;5111043;28;20051;-79
2023/01/19 03:16:20;;;;;;;0.80;0.80;;;;;;;-0.69;100.00;98913.78;5111881;28;20047;-78
2023/01/19 03:18:57;;;;;;;0.80;0.80;;;;;;;-0.70;100.00;98910.31;5112525;28;20139;-78
2023/01/19 03:21:26;;;;;;;0.90;0.90;;;;;;;-0.72;100.00;98912.31;5094304;28;20182;-78
2023/01/19 03:23:56;;;;;;;0.88;0.88;;;;;;;-0.70;100.00;98931.50;5093254;28;20047;-78
2023/01/19 03:26:26;;;;;;;0.80;0.80;;;;;;;-0.69;100.00;98932.34;5110962;28;20048;-77
2023/01/19 03:28:55;;;;;;;0.93;0.93;;;;;;;-0.68;100.00;98966.63;5092293;28;20100;-78
2023/01/19 03:31:24;;;;;;;0.98;0.98;;;;;;;-0.68;100.00;98955.22;5076565;28;20050;-79
2023/01/19 03:34:06;;;;;;;0.88;0.88;;;;;;;-0.70;100.00;98963.31;5108034;27;20050;-77
2023/01/19 03:36:41;;;;;;;0.90;0.90;;;;;;;-0.73;100.00;98989.34;5097272;27;20513;-77
2023/01/19 03:39:08;;;;;;;0.70;0.70;;;;;;;-0.73;100.00;98968.97;5114541;27;20043;-79
2023/01/19 03:41:36;;;;;;;0.98;0.98;;;;;;;-0.72;100.00;98946.75;5114275;27;20055;-79
2023/01/19 03:44:05;;;;;;;0.88;0.88;;;;;;;-0.70;100.00;98941.28;5097505;27;20040;-78
2023/01/19 03:46:32;;;;;;;0.70;0.70;;;;;;;-0.71;100.00;98966.97;5132568;27;20053;-78
2023/01/19 03:48:59;;;;;;;0.90;0.90;;;;;;;-0.70;100.00;98949.25;5114091;27;20130;-79
2023/01/19 03:51:26;;;;;;;0.98;0.98;;;;;;;-0.71;100.00;98971.44;5131848;27;20043;-79
2023/01/19 03:53:53;;;;;;;0.90;0.90;;;;;;;-0.71;100.00;98959.03;5121361;27;20044;-78
2023/01/19 03:56:24;;;;;;;0.93;0.93;;;;;;;-0.69;100.00;98956.19;5111808;28;20043;-78
2023/01/19 03:58:51;;;;;;;0.90;0.90;;;;;;;-0.68;100.00;98971.09;5093281;28;20056;-78
2023/01/19 04:01:23;;;;;;;0.80;0.80;;;;;;;-0.64;100.00;98971.56;5111290;28;20055;-78
2023/01/19 04:03:51;;;;;;;0.70;0.70;;;;;;;-0.63;100.00;98963.47;5111181;28;20141;-79
2023/01/19 04:06:19;;;;;;;0.90;0.90;;;;;;;-0.60;100.00;98992.28;5111013;28;20394;-80
2023/01/19 04:08:48;;;;;;;0.90;0.90;;;;;;;-0.59;100.00;99003.69;5092903;28;20421;-79
2023/01/19 04:11:15;;;;;;;0.88;0.88;;;;;;;-0.53;100.00;99018.91;5094050;27;20047;-80
2023/01/19 04:13:43;;;;;;;0.70;0.70;;;;;;;-0.53;100.00;99003.00;5114308;27;20086;-77
2023/01/19 04:16:11;;;;;;;0.65;0.65;;;;;;;-0.51;100.00;98990.38;5125534;27;20051;-81
2023/01/19 04:18:40;;;;;;;0.85;0.85;;;;;;;-0.47;100.00;99004.97;5114764;27;20043;-77
2023/01/19 04:21:07;;;;;;;1.00;1.00;;;;;;;-0.47;100.00;99003.13;5108808;27;20162;-80
2023/01/19 04:23:34;;;;;;;0.90;0.90;;;;;;;-0.37;100.00;99020.66;5104775;28;20101;-79
2023/01/19 04:26:04;;;;;;;0.80;0.80;;;;;;;-0.37;100.00;99026.78;5089488;28;20052;-81
2023/01/19 04:28:33;;;;;;;1.00;1.00;;;;;;;-0.31;100.00;99015.47;5110810;27;20063;-78
2023/01/19 04:31:00;;;;;;;0.90;0.90;;;;;;;-0.33;100.00;99027.25;5107546;27;20047;-77
2023/01/19 04:33:28;;;;;;;0.85;0.85;;;;;;;-0.33;100.00;99029.91;5102696;28;20108;-79
2023/01/19 04:35:55;;;;;;;0.75;0.75;;;;;;;-0.30;100.00;99011.00;5081385;28;20074;-76
2023/01/19 04:38:24;;;;;;;0.80;0.80;;;;;;;-0.27;100.00;99005.34;5096272;28;20596;-79
2023/01/19 04:40:52;;;;;;;0.90;0.90;;;;;;;-0.26;100.00;99012.31;5095424;27;20055;-77
2023/01/19 04:43:20;;;;;;;0.73;0.73;;;;;;;-0.22;100.00;99006.47;5087466;28;20047;-79
2023/01/19 04:45:47;;;;;;;0.90;0.90;;;;;;;-0.22;100.00;99014.44;5088667;28;20562;-79
2023/01/19 04:48:17;;;;;;;1.00;1.00;;;;;;;-0.16;100.00;99028.81;5105969;28;20047;-81
2023/01/19 04:50:44;;;;;;;0.70;0.70;;;;;;;-0.20;100.00;99006.31;5102101;27;20622;-78
2023/01/19 04:53:15;;;;;;;0.90;0.90;;;;;;;-0.21;100.00;99020.56;5098310;27;20050;-77
2023/01/19 04:55:42;;;;;;;0.70;0.70;;;;;;;-0.17;100.00;99013.91;5111454;27;20047;-77
2023/01/19 04:58:14;;;;;;;1.00;1.00;;;;;;;-0.18;100.00;99025.50;5090114;28;20430;-77
2023/01/19 05:00:43;;;;;;;0.90;0.90;;;;;;;-0.17;100.00;99005.13;5072672;28;20048;-78
2023/01/19 05:03:13;;;;;;;1.00;1.00;;;;;;;-0.21;100.00;99020.56;5075725;28;20048;-78
2023/01/19 05:05:40;;;;;;;0.80;0.80;;;;;;;-0.19;100.00;99026.53;5107515;28;20039;-79
2023/01/19 05:08:07;;;;;;;0.90;0.90;;;;;;;-0.20;100.00;99021.38;5081980;28;20055;-79
2023/01/19 05:10:35;;;;;;;0.90;0.90;;;;;;;-0.21;100.00;99023.22;5099433;28;20123;-80
2023/01/19 05:13:03;;;;;;;0.90;0.90;;;;;;;-0.17;100.00;99027.19;5108823;28;20051;-79
2023/01/19 05:15:30;;;;;;;0.90;0.90;;;;;;;-0.12;100.00;99030.13;5069250;28;20139;-78
2023/01/19 05:17:57;;;;;;;0.90;0.90;;;;;;;-0.12;100.00;99038.09;5115551;28;20066;-78
2023/01/19 05:20:24;;;;;;;0.63;0.63;;;;;;;-0.11;100.00;99025.66;5118403;28;20082;-80
2023/01/19 05:22:52;;;;;;;0.80;0.80;;;;;;;-0.10;100.00;99038.75;5088011;28;20052;-78
2023/01/19 05:25:19;;;;;;;0.93;0.93;;;;;;;-0.09;100.00;99034.25;5093087;28;20053;-78
2023/01/19 05:27:46;;;;;;;0.80;0.80;;;;;;;-0.05;100.00;99027.59;5112444;28;20074;-78
2023/01/19 05:30:15;;;;;;;0.88;0.88;;;;;;;-0.05;100.00;99043.50;5091443;28;20043;-78
2023/01/19 05:32:42;;;;;;;0.90;0.90;;;;;;;-0.05;100.00;99059.41;5109265;28;20066;-78
2023/01/19 05:35:09;;;;;;;0.82;0.82;;;;;;;-0.02;100.00;99040.53;5075186;28;20040;-78
2023/01/19 05:37:36;;;;;;;1.00;1.00;;;;;;;-0.02;100.00;99036.03;5110411;28;20108;-77
2023/01/19 05:40:08;;;;;;;0.90;0.90;;;;;;;0.04;100.00;99062.88;5091444;28;20059;-76
2023/01/19 05:42:35;;;;;;;0.90;0.90;;;;;;;0.03;100.00;99066.53;5109986;28;20056;-78
2023/01/19 05:45:03;;;;;;;0.70;0.70;;;;;;;0.07;100.00;99065.16;5112474;28;20040;-78
2023/01/19 05:47:31;;;;;;;0.90;0.90;;;;;;;0.06;100.00;99060.88;5113889;28;20055;-76
2023/01/19 05:49:58;;;;;;;0.70;0.70;;;;;;;0.08;100.00;99072.16;5095238;28;20039;-77
2023/01/19 05:52:25;;;;;;;0.90;0.90;;;;;;;0.09;100.00;99090.53;5095634;28;20675;-78
2023/01/19 05:54:53;;;;;;;0.90;0.90;;;;;;;0.11;100.00;99095.69;5113716;28;20150;-77
2023/01/19 05:57:21;;;;;;;0.75;0.75;;;;;;;0.14;100.00;99105.94;5113521;28;20070;-77
2023/01/19 05:59:50;;;;;;;0.90;0.90;;;;;;;0.15;100.00;99104.91;5113376;28;20051;-78
2023/01/19 06:02:18;;;;;;;0.85;0.85;;;;;;;0.16;100.00;99106.59;5112843;28;20055;-77
2023/01/19 06:04:45;;;;;;;0.90;0.90;;;;;;;0.10;100.00;99101.97;5112985;28;20044;-78
2023/01/19 06:07:12;;;;;;;0.88;0.88;;;;;;;0.15;100.00;99105.78;5113304;28;20138;-77
2023/01/19 06:09:42;;;;;;;1.00;1.00;;;;;;;0.19;100.00;99114.19;5094773;28;20043;-77
2023/01/19 06:12:09;;;;;;;0.90;0.90;;;;;;;0.19;100.00;99116.84;5092609;28;20050;-77
2023/01/19 06:14:36;;;;;;;0.90;0.90;;;;;;;0.17;100.00;99103.75;5085231;28;20528;-78
2023/01/19 06:17:05;;;;;;;0.90;0.90;;;;;;;0.21;100.00;99104.25;5113060;28;20150;-76
2023/01/19 06:19:33;;;;;;;0.88;0.88;;;;;;;0.24;100.00;99103.06;5113292;28;20048;-77
2023/01/19 06:22:02;;;;;;;0.82;0.82;;;;;;;0.24;100.00;99119.81;5122215;27;20070;-78
2023/01/19 06:24:30;;;;;;;0.85;0.85;;;;;;;0.26;100.00;99127.59;5133402;27;20053;-78
2023/01/19 06:26:59;;;;;;;0.90;0.90;;;;;;;0.27;100.00;99116.78;5112998;28;20143;-77
2023/01/19 06:29:27;;;;;;;0.80;0.80;;;;;;;0.30;100.00;99118.28;5113270;28;20109;-77
2023/01/19 06:31:55;;;;;;;0.90;0.90;;;;;;;0.29;100.00;99125.41;5112878;28;20058;-78
2023/01/19 06:34:27;;;;;;;0.80;0.80;;;;;;;0.30;100.00;99127.06;5113088;28;20066;-78
2023/01/19 06:36:55;;;;;;;0.90;0.90;;;;;;;0.33;100.00;99136.50;5112760;28;20054;-79
2023/01/19 06:39:22;;;;;;;1.00;1.00;;;;;;;0.35;100.00;99127.34;5112913;28;20044;-78
2023/01/19 06:41:50;;;;;;;0.80;0.80;;;;;;;0.36;100.00;99126.38;5094683;28;20043;-77
2023/01/19 06:44:19;;;;;;;0.80;0.80;;;;;;;0.40;100.00;99118.88;5094709;28;20055;-78
2023/01/19 06:46:47;;;;;;;0.98;0.98;;;;;;;0.40;100.00;99132.97;5112560;28;20581;-78
2023/01/19 06:49:15;;;;;;;0.95;0.95;;;;;;;0.42;100.00;99143.44;5094472;28;20586;-77
2023/01/19 06:51:49;;;;;;;1.10;1.10;;;;;;;0.43;100.00;99126.47;5112697;28;20135;-78
2023/01/19 06:54:18;;;;;;;0.80;0.80;;;;;;;0.47;100.00;99137.59;5112361;28;20070;-77
2023/01/19 06:56:49;;;;;;;0.90;0.90;;;;;;;0.48;100.00;99137.44;5112443;28;20090;-78
2023/01/19 06:59:17;;;;;;;0.90;0.90;;;;;;;0.50;100.00;99130.09;5112508;28;20048;-77
2023/01/19 07:01:44;;;;;;;0.90;0.90;;;;;;;0.49;100.00;99133.75;5112136;28;20048;-77
2023/01/19 07:04:13;;;;;;;1.00;1.00;;;;;;;0.53;100.00;99145.69;5112724;28;20130;-77
2023/01/19 07:06:40;;;;;;;0.80;0.80;;;;;;;0.55;100.00;99154.28;5076534;28;20055;-78
2023/01/19 07:09:12;;;;;;;0.82;0.82;;;;;;;0.55;100.00;99148.16;5112388;28;20046;-78
2023/01/19 07:11:44;;;;;;;0.90;0.90;;;;;;;0.55;100.00;99126.91;5111958;28;20067;-78
2023/01/19 07:14:12;;;;;;;0.90;0.90;;;;;;;0.56;100.00;99144.50;5094279;28;20139;-78
2023/01/19 07:16:39;;;;;;;1.00;1.00;;;;;;;0.58;100.00;99171.69;5094461;28;20050;-76
2023/01/19 07:19:06;;;;;;;1.10;1.10;;;;;;;0.55;100.00;99159.59;5128811;27;20046;-79
2023/01/19 07:21:33;;;;;;;0.90;0.90;;;;;;;0.59;100.00;99141.50;5132679;27;20070;-78
2023/01/19 07:24:00;;;;;;;0.90;0.90;;;;;;;0.60;100.00;99177.66;5132623;27;20814;-77
2023/01/19 07:26:27;;;;;;;0.90;0.90;;;;;;;0.58;100.00;99155.75;5115428;27;20078;-78
2023/01/19 07:28:54;;;;;;;0.90;0.90;;;;;;;0.58;100.00;99155.75;5111617;28;20155;-79
2023/01/19 07:31:21;;;;;;;0.98;0.98;;;;;;;0.60;100.00;99167.03;5111979;28;20138;-78
2023/01/19 07:33:49;;;;;;;0.80;0.80;;;;;;;0.59;100.00;99190.13;5111549;28;20047;-77
2023/01/19 07:36:18;;;;;;;1.00;1.00;;;;;;;0.61;100.00;99174.03;5113007;28;20047;-78
2023/01/19 07:38:47;;;;;;;0.90;0.90;;;;;;;0.59;100.00;99198.09;5111521;28;20099;-77
2023/01/19 07:41:14;;;;;;;0.88;0.88;;;;;;;0.61;100.00;99200.59;5111821;28;20051;-77
2023/01/19 07:43:41;;;;;;;0.90;0.90;;;;;;;0.59;100.00;99198.09;5093353;28;20135;-77
2023/01/19 07:46:08;;;;;;;0.90;0.90;;;;;;;0.61;100.00;99205.91;5111712;28;20054;-77
2023/01/19 07:48:35;;;;;;;0.80;0.80;;;;;;;0.62;100.00;99215.50;5111696;28;20046;-78
2023/01/19 07:51:07;;;;;;;0.75;0.75;;;;;;;0.60;100.00;99214.84;5111970;28;20489;-78
2023/01/19 07:53:38;;;;;;;1.00;1.00;;;;;;;0.58;100.00;99209.72;5111955;28;20134;-78
2023/01/19 07:56:06;;;;;;;0.90;0.90;;;;;;;0.61;100.00;99189.97;5111444;28;20501;-78
2023/01/19 07:58:34;;;;;;;0.98;0.98;;;;;;;0.59;100.00;99214.03;5111896;28;20051;-78
2023/01/19 08:01:11;;;;;;;0.90;0.90;;;;;;;0.58;100.00;99203.56;5111050;28;20113;-78
2023/01/19 08:03:39;;;;;;;0.70;0.70;;;;;;;0.60;100.00;99215.66;5111466;28;20067;-77
2023/01/19 08:06:21;;;;;;;0.85;0.85;;;;;;;0.61;100.00;99230.63;5110924;28;20425;-78
2023/01/19 08:08:49;;;;;;;0.90;0.90;;;;;;;0.61;100.00;99227.16;5111149;28;20071;-79
2023/01/19 08:11:16;;;;;;;0.90;0.90;;;;;;;0.63;100.00;99222.47;5076479;28;20073;-79
2023/01/19 08:13:43;;;;;;;0.82;0.82;;;;;;;0.68;100.00;99269.75;5095734;27;20498;-78
2023/01/19 08:16:10;;;;;;;0.80;0.80;;;;;;;0.65;100.00;99236.41;5132112;27;20047;-78
2023/01/19 08:18:37;;;;;;;1.00;1.00;;;;;;;0.65;100.00;99255.00;5131930;27;20043;-78
2023/01/19 08:21:04;;;;;;;0.90;0.90;;;;;;;0.65;100.00;99257.66;5112894;27;20043;-78
2023/01/19 08:23:31;;;;;;;0.90;0.90;;;;;;;0.68;100.00;99257.28;5081862;28;20413;-77
2023/01/19 08:25:58;;;;;;;0.80;0.80;;;;;;;0.67;100.00;99221.13;5084899;28;20047;-78
2023/01/19 08:28:25;;;;;;;0.98;0.98;;;;;;;0.67;100.00;99260.97;5110899;28;20050;-78
2023/01/19 08:30:54;;;;;;;0.95;0.95;;;;;;;0.65;100.00;99249.69;5110694;28;20046;-76
2023/01/19 08:33:22;;;;;;;0.90;0.90;;;;;;;0.60;100.00;99267.97;5110593;28;20048;-78
2023/01/19 08:35:53;;;;;;;0.80;0.80;;;;;;;0.58;100.00;99265.50;5110498;28;20509;-78
2023/01/19 08:38:20;;;;;;;0.77;0.77;;;;;;;0.65;100.00;99273.59;5092599;28;20145;-78
2023/01/19 08:40:47;;;;;;;0.95;0.95;;;;;;;0.66;100.00;99251.34;5110259;28;20071;-78
2023/01/19 08:43:16;;;;;;;0.90;0.90;;;;;;;0.62;100.00;99252.69;5092365;28;20546;-77
2023/01/19 08:45:47;;;;;;;0.90;0.90;;;;;;;0.64;100.00;99259.47;5111216;28;20562;-77
2023/01/19 08:48:18;;;;;;;0.90;0.90;;;;;;;0.66;100.00;99261.97;5111002;28;20044;-77
2023/01/19 08:50:46;;;;;;;0.93;0.93;;;;;;;0.63;100.00;99257.84;5109809;28;20145;-78
2023/01/19 08:53:14;;;;;;;0.90;0.90;;;;;;;0.55;100.00;99249.06;5110642;28;20506;-77
2023/01/19 08:55:41;;;;;;;0.90;0.90;;;;;;;0.54;100.00;99252.75;5111072;28;20126;-76
2023/01/19 08:58:09;;;;;;;0.93;0.93;;;;;;;0.57;100.00;99247.06;5112307;28;20070;-78
2023/01/19 09:00:37;;;;;;;0.95;0.95;;;;;;;0.57;100.00;99255.03;5092227;28;20040;-79
2023/01/19 09:03:06;;;;;;;1.00;1.00;;;;;;;0.56;100.00;99256.88;5092025;28;20547;-78
2023/01/19 09:05:36;;;;;;;0.80;0.80;;;;;;;0.54;100.00;99250.09;5110530;28;20054;-77
2023/01/19 09:08:07;;;;;;;0.98;0.98;;;;;;;0.52;100.00;99239.63;5110069;28;20051;-77
2023/01/19 09:10:36;;;;;;;0.80;0.80;;;;;;;0.55;100.00;99238.44;5117780;28;20047;-78
2023/01/19 09:13:05;;;;;;;0.90;0.90;;;;;;;0.56;100.00;99251.56;5112546;28;20072;-77
2023/01/19 09:15:34;;;;;;;0.90;0.90;;;;;;;0.60;100.00;99246.72;5112229;28;20065;-77
2023/01/19 09:18:06;;;;;;;0.90;0.90;;;;;;;0.60;100.00;99246.72;5111045;28;20048;-78
2023/01/19 09:20:34;;;;;;;0.90;0.90;;;;;;;0.60;100.00;99225.47;5114612;28;20108;-77
2023/01/19 09:23:02;;;;;;;1.00;1.00;;;;;;;0.61;100.00;99227.16;5096067;28;20421;-78
2023/01/19 09:25:29;;;;;;;0.80;0.80;;;;;;;0.65;100.00;99236.41;5091129;28;20047;-77
2023/01/19 09:28:01;;;;;;;0.90;0.90;;;;;;;0.66;100.00;99224.78;5114130;27;20459;-79
2023/01/19 09:30:28;;;;;;;1.00;1.00;;;;;;;0.61;100.00;99204.06;5117724;27;20095;-78
2023/01/19 09:33:00;;;;;;;0.70;0.70;;;;;;;0.58;100.00;99216.84;5110070;28;20048;-78
2023/01/19 09:35:27;;;;;;;0.80;0.80;;;;;;;0.63;100.00;99227.78;5113441;28;20449;-78
2023/01/19 09:37:55;;;;;;;0.93;0.93;;;;;;;0.69;100.00;99239.56;5113059;28;20047;-79
2023/01/19 09:40:22;;;;;;;0.90;0.90;;;;;;;0.71;100.00;99246.34;5113466;28;20096;-79
2023/01/19 09:42:55;;;;;;;0.80;0.80;;;;;;;0.67;100.00;99234.41;5115811;28;20044;-78
2023/01/19 09:45:28;;;;;;;0.80;0.80;;;;;;;0.68;100.00;99249.31;5121005;27;20062;-78
2023/01/19 09:47:56;;;;;;;1.00;1.00;;;;;;;0.60;100.00;99230.78;5116951;27;20050;-79
2023/01/19 09:50:28;;;;;;;0.85;0.85;;;;;;;0.69;100.00;99243.03;5111164;27;20891;-79
2023/01/19 09:53:00;;;;;;;0.90;0.90;;;;;;;0.74;100.00;99232.69;5082934;28;20496;-78
2023/01/19 09:55:28;;;;;;;0.98;0.98;;;;;;;0.77;100.00;99253.59;5096180;28;20559;-80
2023/01/19 09:57:55;;;;;;;0.98;0.98;;;;;;;0.79;100.00;99246.28;5112015;28;20412;-82
2023/01/19 10:00:26;;;;;;;0.85;0.85;;;;;;;0.73;100.00;99243.50;5110850;28;20054;-79
2023/01/19 10:03:15;;;;;;;1.00;1.00;;;;;;;0.82;100.00;99245.94;5086744;28;20044;-81
2023/01/19 10:05:46;;;;;;;0.90;0.90;;;;;;;0.83;100.00;99247.56;5104954;28;20056;-81
2023/01/19 10:08:44;;;;;;;0.95;0.95;;;;;;;0.84;100.00;99243.94;5110787;27;20052;-79
2023/01/19 10:11:36;;;;;;;0.90;0.90;;;;;;;0.85;100.00;99247.41;5108658;28;20052;-81
2023/01/19 10:14:42;;;;;;;0.90;0.90;;;;;;;0.80;100.00;99252.41;5107734;27;20524;-79
2023/01/19 10:17:20;;;;;;;0.90;0.90;;;;;;;0.85;100.00;99256.19;5088228;28;20605;-81
2023/01/19 10:19:52;;;;;;;0.70;0.70;;;;;;;0.79;100.00;99235.66;5095727;28;20044;-78
2023/01/19 10:22:23;;;;;;;0.98;0.98;;;;;;;0.82;100.00;99243.28;5075414;28;20488;-82
2023/01/19 10:24:54;;;;;;;1.00;1.00;;;;;;;0.77;100.00;99227.03;5098392;27;20055;-80
2023/01/19 10:27:25;;;;;;;1.00;1.00;;;;;;;0.76;100.00;99232.50;5117213;27;20048;-80
2023/01/19 10:29:52;;;;;;;0.90;0.90;;;;;;;0.80;100.00;99231.16;5052160;28;20198;-82
2023/01/19 10:32:33;;;;;;;0.80;0.80;;;;;;;0.89;100.00;99223.97;5077780;28;20076;-79
2023/01/19 10:35:20;;;;;;;1.00;1.00;;;;;;;0.92;100.00;99244.88;5078702;27;20105;-83
2023/01/19 10:37:48;;;;;;;0.85;0.85;;;;;;;0.92;100.00;99237.72;5102268;27;20558;-80
2023/01/19 10:40:34;;;;;;;1.00;1.00;;;;;;;0.94;100.00;99232.22;5091463;28;20071;-82
2023/01/19 10:43:47;;;;;;;0.90;0.90;;;;;;;0.93;100.00;99227.94;5088349;28;20569;-81
2023/01/19 10:46:40;;;;;;;0.85;0.85;;;;;;;0.87;100.00;99224.16;5113356;27;20484;-82
2023/01/19 10:49:27;;;;;;;1.00;1.00;;;;;;;0.89;100.00;99256.69;5086603;28;20052;-81
2023/01/19 10:51:58;;;;;;;0.90;0.90;;;;;;;0.89;100.00;99237.25;5111456;28;20050;-81
2023/01/19 10:54:26;;;;;;;0.90;0.90;;;;;;;0.93;100.00;99233.25;5107972;27;20103;-82
2023/01/19 10:56:59;;;;;;;0.80;0.80;;;;;;;0.92;100.00;99250.19;5109786;27;20077;-81
2023/01/19 10:59:30;;;;;;;0.85;0.85;;;;;;;0.90;100.00;99246.88;5101843;28;20056;-82
2023/01/19 11:02:18;;;;;;;1.00;1.00;;;;;;;0.75;100.00;99229.03;5097910;28;20040;-81
2023/01/19 11:04:51;;;;;;;0.80;0.80;;;;;;;0.87;100.00;99248.06;5086821;27;20043;-82
2023/01/19 11:07:25;;;;;;;1.00;1.00;;;;;;;0.90;100.00;99250.38;5105409;28;20113;-81
2023/01/19 11:10:14;;;;;;;0.80;0.80;;;;;;;0.76;100.00;99251.97;5099736;28;20079;-82
2023/01/19 11:12:56;;;;;;;0.90;0.90;;;;;;;0.84;100.00;99251.09;5106562;28;20731;-81
2023/01/19 11:16:07;;;;;;;0.98;0.98;;;;;;;0.80;100.00;99239.97;5110374;27;20054;-80
2023/01/19 11:18:41;;;;;;;0.90;0.90;;;;;;;0.85;100.00;99234.94;5071984;28;20135;-82
2023/01/19 11:21:21;;;;;;;0.90;0.90;;;;;;;0.89;100.00;99246.06;5091432;28;20051;-80
2023/01/19 11:23:56;;;;;;;0.90;0.90;;;;;;;0.78;100.00;99239.31;5078815;28;20142;-79
2023/01/19 11:26:39;;;;;;;1.00;1.00;;;;;;;0.79;100.00;99262.22;5114117;27;20128;-81
2023/01/19 11:29:17;;;;;;;0.88;0.88;;;;;;;0.68;100.00;99244.00;5103862;27;20100;-80
2023/01/19 11:31:45;;;;;;;0.90;0.90;;;;;;;0.67;100.00;99271.59;5101354;28;20097;-81
2023/01/19 11:34:39;;;;;;;0.90;0.90;;;;;;;0.69;100.00;99264.28;5094620;28;20040;-81
2023/01/19 11:37:17;;;;;;;0.90;0.90;;;;;;;0.70;100.00;99254.47;5102486;28;20089;-81
2023/01/19 11:39:49;;;;;;;0.80;0.80;;;;;;;0.63;100.00;99246.38;5080723;28;20048;-82
2023/01/19 11:42:17;;;;;;;0.80;0.80;;;;;;;0.65;100.00;99239.06;5104144;28;20044;-81
2023/01/19 11:44:51;;;;;;;0.85;0.85;;;;;;;0.61;100.00;99227.97;5095641;28;20128;-80
2023/01/19 11:47:29;;;;;;;0.93;0.93;;;;;;;0.60;100.00;99236.09;5092234;27;20047;-80
2023/01/19 11:50:14;;;;;;;0.90;0.90;;;;;;;0.62;100.00;99258.00;5080863;28;20067;-81
2023/01/19 11:53:11;;;;;;;0.90;0.90;;;;;;;0.60;100.00;99258.16;5087178;28;20063;-81
2023/01/19 11:55:45;;;;;;;1.00;1.00;;;;;;;0.61;100.00;99280.28;5100567;27;20104;-81
2023/01/19 11:58:17;;;;;;;1.00;1.00;;;;;;;0.52;100.00;99282.13;5109666;28;20047;-81